createdAt,value
2017-12-03T00:00:36.847Z,1000.60
2017-12-03T00:01:36.820Z,1000.65
2017-12-03T00:02:36.799Z,1000.60
2017-12-03T00:03:36.774Z,1000.56
2017-12-03T00:04:36.741Z,1000.60
2017-12-03T00:05:36.718Z,1000.62
2017-12-03T00:06:36.689Z,1000.60
2017-12-03T00:07:36.661Z,1000.63
2017-12-03T00:08:36.637Z,1000.61
2017-12-03T00:09:36.612Z,1000.56
2017-12-03T00:10:36.593Z,1000.55
2017-12-03T00:11:36.555Z,1000.53
2017-12-03T00:12:36.529Z,1000.50
2017-12-03T00:13:36.503Z,1000.49
2017-12-03T00:14:36.475Z,1000.50
2017-12-03T00:15:36.454Z,1000.48
2017-12-03T00:16:36.421Z,1000.42
2017-12-03T00:17:36.400Z,1000.41
2017-12-03T00:18:36.371Z,1000.42
2017-12-03T00:19:36.350Z,1000.41
2017-12-03T00:20:36.321Z,1000.39
2017-12-03T00:21:36.289Z,1000.38
2017-12-03T00:22:36.270Z,1000.36
2017-12-03T00:23:36.239Z,1000.37
2017-12-03T00:24:36.220Z,1000.37
2017-12-03T00:25:36.190Z,1000.35
2017-12-03T00:26:36.161Z,1000.38
2017-12-03T00:27:36.144Z,1000.38
2017-12-03T00:28:36.110Z,1000.40
2017-12-03T00:29:36.115Z,1000.42
2017-12-03T00:30:36.067Z,1000.42
2017-12-03T00:31:36.032Z,1000.45
2017-12-03T00:32:36.004Z,1000.41
2017-12-03T00:33:35.973Z,1000.43
2017-12-03T00:34:35.951Z,1000.43
2017-12-03T00:35:35.920Z,1000.42
2017-12-03T00:36:35.926Z,1000.39
2017-12-03T00:37:35.912Z,1000.44
2017-12-03T00:38:35.897Z,1000.42
2017-12-03T00:39:35.820Z,1000.39
2017-12-03T00:40:35.795Z,1000.42
2017-12-03T00:41:35.766Z,1000.39
2017-12-03T00:42:35.735Z,1000.41
2017-12-03T00:43:35.715Z,1000.40
2017-12-03T00:44:35.685Z,1000.38
2017-12-03T00:45:35.653Z,1000.42
2017-12-03T00:46:35.629Z,1000.41
2017-12-03T00:47:35.603Z,1000.42
2017-12-03T00:48:35.575Z,1000.41
2017-12-03T00:49:35.555Z,1000.40
2017-12-03T00:50:35.521Z,1000.42
2017-12-03T00:51:35.501Z,1000.41
2017-12-03T00:52:35.467Z,1000.39
2017-12-03T00:53:35.440Z,1000.39
2017-12-03T00:54:35.415Z,1000.40
2017-12-03T00:55:35.390Z,1000.41
2017-12-03T00:56:35.363Z,1000.38
2017-12-03T00:57:35.338Z,1000.35
2017-12-03T00:58:35.308Z,1000.40
2017-12-03T00:59:35.282Z,1000.35
2017-12-03T01:00:35.257Z,1000.35
2017-12-03T01:01:35.230Z,1000.35
2017-12-03T01:02:35.204Z,1000.35
2017-12-03T01:03:35.174Z,1000.34
2017-12-03T01:04:35.151Z,1000.34
2017-12-03T01:05:35.124Z,1000.38
2017-12-03T01:06:35.094Z,1000.36
2017-12-03T01:07:35.072Z,1000.38
2017-12-03T01:08:35.046Z,1000.35
2017-12-03T01:09:35.016Z,1000.35
2017-12-03T01:10:34.988Z,1000.30
2017-12-03T01:11:34.965Z,1000.35
2017-12-03T01:12:34.976Z,1000.35
2017-12-03T01:13:34.911Z,1000.33
2017-12-03T01:14:34.885Z,1000.33
2017-12-03T01:15:34.859Z,1000.33
2017-12-03T01:16:34.829Z,1000.32
2017-12-03T01:17:34.801Z,1000.30
2017-12-03T01:18:34.776Z,1000.29
2017-12-03T01:19:34.764Z,1000.27
2017-12-03T01:20:34.723Z,1000.29
2017-12-03T01:21:55.706Z,1000.28
2017-12-03T01:22:34.673Z,1000.31
2017-12-03T01:23:34.644Z,1000.34
2017-12-03T01:24:34.619Z,1000.33
2017-12-03T01:25:34.590Z,1000.31
2017-12-03T01:26:34.563Z,1000.30
2017-12-03T01:27:34.535Z,1000.27
2017-12-03T01:28:34.511Z,1000.24
2017-12-03T01:29:34.484Z,1000.26
2017-12-03T01:30:34.456Z,1000.27
2017-12-03T01:31:34.489Z,1000.23
2017-12-03T01:32:34.400Z,1000.26
2017-12-03T01:33:34.394Z,1000.28
2017-12-03T01:34:34.348Z,1000.32
2017-12-03T01:35:34.323Z,1000.30
2017-12-03T01:36:34.298Z,1000.28
2017-12-03T01:37:34.267Z,1000.30
2017-12-03T01:38:34.265Z,1000.30
2017-12-03T01:39:34.216Z,1000.29
2017-12-03T01:40:34.187Z,1000.28
2017-12-03T01:41:34.164Z,1000.27
2017-12-03T01:42:34.138Z,1000.28
2017-12-03T01:43:34.110Z,1000.22
2017-12-03T01:44:34.081Z,1000.21
2017-12-03T01:45:34.056Z,1000.26
2017-12-03T01:46:34.029Z,1000.23
2017-12-03T01:47:34.053Z,1000.30
2017-12-03T01:48:33.977Z,1000.21
2017-12-03T01:49:33.954Z,1000.27
2017-12-03T01:50:33.929Z,1000.22
2017-12-03T01:51:33.902Z,1000.23
2017-12-03T01:52:33.868Z,1000.24
2017-12-03T01:53:33.868Z,1000.23
2017-12-03T01:54:33.822Z,1000.25
2017-12-03T01:55:33.798Z,1000.26
2017-12-03T01:56:33.764Z,1000.25
2017-12-03T01:57:33.739Z,1000.30
2017-12-03T01:58:33.719Z,1000.31
2017-12-03T01:59:33.686Z,1000.26
2017-12-03T02:00:33.660Z,1000.27
2017-12-03T02:01:33.625Z,1000.28
2017-12-03T02:02:33.606Z,1000.27
2017-12-03T02:03:33.577Z,1000.31
2017-12-03T02:04:33.542Z,1000.27
2017-12-03T02:05:33.553Z,1000.26
2017-12-03T02:06:33.510Z,1000.26
2017-12-03T02:07:33.473Z,1000.22
2017-12-03T02:08:33.448Z,1000.18
2017-12-03T02:09:33.417Z,1000.15
2017-12-03T02:10:33.390Z,1000.13
2017-12-03T02:11:33.384Z,1000.16
2017-12-03T02:12:33.340Z,1000.18
2017-12-03T02:13:33.306Z,1000.18
2017-12-03T02:14:33.278Z,1000.20
2017-12-03T02:15:33.266Z,1000.18
2017-12-03T02:16:33.222Z,1000.20
2017-12-03T02:17:33.199Z,1000.13
2017-12-03T02:18:33.172Z,1000.15
2017-12-03T02:19:33.143Z,1000.12
2017-12-03T02:20:33.118Z,1000.11
2017-12-03T02:21:33.145Z,1000.14
2017-12-03T02:22:33.059Z,1000.12
2017-12-03T02:23:33.037Z,1000.13
2017-12-03T02:24:33.012Z,1000.11
2017-12-03T02:25:32.979Z,1000.11
2017-12-03T02:26:32.980Z,1000.12
2017-12-03T02:27:32.933Z,1000.12
2017-12-03T02:28:32.898Z,1000.11
2017-12-03T02:29:32.873Z,1000.10
2017-12-03T02:30:32.854Z,1000.11
2017-12-03T02:31:32.827Z,1000.12
2017-12-03T02:32:32.797Z,1000.12
2017-12-03T02:33:32.775Z,1000.11
2017-12-03T02:34:32.815Z,1000.10
2017-12-03T02:35:32.717Z,1000.08
2017-12-03T02:36:32.684Z,1000.09
2017-12-03T02:37:32.659Z,1000.09
2017-12-03T02:38:32.632Z,1000.06
2017-12-03T02:39:32.619Z,1000.10
2017-12-03T02:40:32.576Z,1000.08
2017-12-03T02:41:32.551Z,1000.09
2017-12-03T02:42:32.532Z,1000.05
2017-12-03T02:43:32.505Z,1000.05
2017-12-03T02:44:32.472Z,1000.05
2017-12-03T02:45:32.447Z,1000.04
2017-12-03T02:46:32.422Z,1000.03
2017-12-03T02:47:32.386Z,1000.05
2017-12-03T02:48:32.369Z,1000.01
2017-12-03T02:49:32.335Z,1000.04
2017-12-03T02:50:32.361Z,1000.00
2017-12-03T02:51:32.289Z,1000.01
2017-12-03T02:52:34.811Z,1000.00
2017-12-03T02:53:32.228Z,1000.00
2017-12-03T02:54:32.213Z,1000.00
2017-12-03T02:55:32.203Z,999.99
2017-12-03T02:56:32.144Z,999.96
2017-12-03T02:57:32.127Z,999.92
2017-12-03T02:58:32.092Z,999.92
2017-12-03T02:59:32.065Z,999.94
2017-12-03T03:00:32.034Z,999.96
2017-12-03T03:01:32.011Z,999.93
2017-12-03T03:02:31.984Z,999.95
2017-12-03T03:03:31.965Z,999.90
2017-12-03T03:04:31.928Z,999.87
2017-12-03T03:05:31.905Z,999.88
2017-12-03T03:06:31.877Z,999.84
2017-12-03T03:07:31.849Z,999.86
2017-12-03T03:08:31.822Z,999.86
2017-12-03T03:09:31.795Z,999.85
2017-12-03T03:10:31.770Z,999.85
2017-12-03T03:11:31.741Z,999.82
2017-12-03T03:12:31.712Z,999.83
2017-12-03T03:13:31.699Z,999.81
2017-12-03T03:14:31.667Z,999.83
2017-12-03T03:15:31.634Z,999.82
2017-12-03T03:16:31.608Z,999.77
2017-12-03T03:17:31.579Z,999.75
2017-12-03T03:18:31.554Z,999.75
2017-12-03T03:19:31.526Z,999.74
2017-12-03T03:20:31.496Z,999.73
2017-12-03T03:21:31.476Z,999.74
2017-12-03T03:22:31.443Z,999.72
2017-12-03T03:23:31.417Z,999.75
2017-12-03T03:24:31.390Z,999.73
2017-12-03T03:25:31.365Z,999.69
2017-12-03T03:26:31.340Z,999.74
2017-12-03T03:27:31.309Z,999.76
2017-12-03T03:28:31.280Z,999.70
2017-12-03T03:29:31.254Z,999.68
2017-12-03T03:30:31.230Z,999.70
2017-12-03T03:31:31.203Z,999.68
2017-12-03T03:32:31.173Z,999.68
2017-12-03T03:33:31.148Z,999.67
2017-12-03T03:34:31.122Z,999.64
2017-12-03T03:35:31.092Z,999.65
2017-12-03T03:36:31.068Z,999.63
2017-12-03T03:37:31.043Z,999.62
2017-12-03T03:38:31.011Z,999.63
2017-12-03T03:39:30.991Z,999.58
2017-12-03T03:40:30.955Z,999.59
2017-12-03T03:41:30.935Z,999.59
2017-12-03T03:42:30.913Z,999.59
2017-12-03T03:43:30.888Z,999.59
2017-12-03T03:44:30.848Z,999.59
2017-12-03T03:45:30.849Z,999.56
2017-12-03T03:46:30.798Z,999.56
2017-12-03T03:47:30.775Z,999.57
2017-12-03T03:48:30.745Z,999.54
2017-12-03T03:49:30.716Z,999.51
2017-12-03T03:50:30.692Z,999.51
2017-12-03T03:51:30.667Z,999.49
2017-12-03T03:52:30.633Z,999.52
2017-12-03T03:54:06.338Z,999.51
2017-12-03T03:54:30.587Z,999.47
2017-12-03T03:55:30.555Z,999.49
2017-12-03T03:56:30.527Z,999.49
2017-12-03T03:57:30.501Z,999.49
2017-12-03T03:58:30.478Z,999.49
2017-12-03T03:59:30.444Z,999.48
2017-12-03T04:00:30.428Z,999.51
2017-12-03T04:01:30.390Z,999.50
2017-12-03T04:02:30.365Z,999.48
2017-12-03T04:03:30.344Z,999.49
2017-12-03T04:04:30.351Z,999.47
2017-12-03T04:05:30.282Z,999.49
2017-12-03T04:06:30.255Z,999.45
2017-12-03T04:07:30.230Z,999.43
2017-12-03T04:08:30.203Z,999.42
2017-12-03T04:09:30.176Z,999.46
2017-12-03T04:10:30.151Z,999.45
2017-12-03T04:11:30.126Z,999.45
2017-12-03T04:12:30.099Z,999.46
2017-12-03T04:13:30.070Z,999.43
2017-12-03T04:14:30.041Z,999.42
2017-12-03T04:15:30.016Z,999.43
2017-12-03T04:16:29.994Z,999.44
2017-12-03T04:17:29.960Z,999.44
2017-12-03T04:18:29.933Z,999.42
2017-12-03T04:19:29.914Z,999.44
2017-12-03T04:20:29.878Z,999.45
2017-12-03T04:21:29.856Z,999.45
2017-12-03T04:22:29.827Z,999.46
2017-12-03T04:23:29.798Z,999.43
2017-12-03T04:24:29.773Z,999.40
2017-12-03T04:25:29.746Z,999.43
2017-12-03T04:26:29.719Z,999.40
2017-12-03T04:27:29.692Z,999.41
2017-12-03T04:28:29.665Z,999.41
2017-12-03T04:29:29.642Z,999.39
2017-12-03T04:30:29.610Z,999.39
2017-12-03T04:31:29.584Z,999.37
2017-12-03T04:32:29.561Z,999.34
2017-12-03T04:33:29.532Z,999.33
2017-12-03T04:34:29.505Z,999.35
2017-12-03T04:35:29.480Z,999.35
2017-12-03T04:36:29.451Z,999.33
2017-12-03T04:37:29.426Z,999.39
2017-12-03T04:38:29.399Z,999.39
2017-12-03T04:39:29.378Z,999.40
2017-12-03T04:40:29.343Z,999.39
2017-12-03T04:41:29.323Z,999.32
2017-12-03T04:42:29.300Z,999.30
2017-12-03T04:43:29.264Z,999.31
2017-12-03T04:44:29.238Z,999.34
2017-12-03T04:45:29.210Z,999.34
2017-12-03T04:46:29.183Z,999.36
2017-12-03T04:47:29.159Z,999.34
2017-12-03T04:48:29.130Z,999.34
2017-12-03T04:49:29.105Z,999.30
2017-12-03T04:50:29.088Z,999.27
2017-12-03T04:51:29.050Z,999.30
2017-12-03T04:52:29.023Z,999.28
2017-12-03T04:53:29.000Z,999.29
2017-12-03T04:54:28.975Z,999.32
2017-12-03T04:55:28.949Z,999.34
2017-12-03T04:56:28.914Z,999.32
2017-12-03T04:57:28.890Z,999.32
2017-12-03T04:58:28.863Z,999.32
2017-12-03T04:59:28.844Z,999.29
2017-12-03T05:00:28.810Z,999.30
2017-12-03T05:01:28.785Z,999.28
2017-12-03T05:02:28.755Z,999.27
2017-12-03T05:03:28.736Z,999.24
2017-12-03T05:04:28.703Z,999.22
2017-12-03T05:05:28.674Z,999.19
2017-12-03T05:06:28.653Z,999.21
2017-12-03T05:07:28.636Z,999.20
2017-12-03T05:08:28.594Z,999.18
2017-12-03T05:09:28.631Z,999.20
2017-12-03T05:10:28.550Z,999.19
2017-12-03T05:11:28.517Z,999.18
2017-12-03T05:12:28.494Z,999.18
2017-12-03T05:13:28.498Z,999.18
2017-12-03T05:14:28.432Z,999.24
2017-12-03T05:15:28.411Z,999.22
2017-12-03T05:16:28.389Z,999.24
2017-12-03T05:17:28.352Z,999.20
2017-12-03T05:18:28.330Z,999.24
2017-12-03T05:19:28.314Z,999.23
2017-12-03T05:20:28.274Z,999.21
2017-12-03T05:21:28.250Z,999.21
2017-12-03T05:22:28.233Z,999.18
2017-12-03T05:23:28.192Z,999.15
2017-12-03T05:24:28.169Z,999.16
2017-12-03T05:25:28.144Z,999.13
2017-12-03T05:26:28.113Z,999.14
2017-12-03T05:27:28.090Z,999.14
2017-12-03T05:28:28.063Z,999.17
2017-12-03T05:29:28.034Z,999.17
2017-12-03T05:30:28.013Z,999.15
2017-12-03T05:31:27.982Z,999.16
2017-12-03T05:32:27.953Z,999.12
2017-12-03T05:33:27.929Z,999.13
2017-12-03T05:34:27.901Z,999.15
2017-12-03T05:35:27.869Z,999.13
2017-12-03T05:36:27.850Z,999.06
2017-12-03T05:37:27.814Z,999.05
2017-12-03T05:38:27.790Z,999.01
2017-12-03T05:39:27.766Z,999.04
2017-12-03T05:40:27.753Z,999.06
2017-12-03T05:41:27.722Z,999.08
2017-12-03T05:42:27.689Z,999.04
2017-12-03T05:43:27.658Z,999.14
2017-12-03T05:44:27.631Z,999.09
2017-12-03T05:45:27.603Z,999.13
2017-12-03T05:46:27.576Z,999.09
2017-12-03T05:47:27.600Z,999.11
2017-12-03T05:48:27.525Z,999.10
2017-12-03T05:49:27.495Z,999.11
2017-12-03T05:50:27.470Z,999.10
2017-12-03T05:51:27.448Z,999.05
2017-12-03T05:52:27.415Z,999.04
2017-12-03T05:53:27.388Z,999.04
2017-12-03T05:54:30.320Z,999.03
2017-12-03T05:55:27.335Z,999.08
2017-12-03T05:56:27.308Z,999.04
2017-12-03T05:57:27.284Z,999.06
2017-12-03T05:58:27.254Z,999.05
2017-12-03T05:59:27.229Z,999.05
2017-12-03T06:00:27.205Z,999.01
2017-12-03T06:01:27.173Z,999.01
2017-12-03T06:02:27.158Z,999.01
2017-12-03T06:03:27.127Z,999.03
2017-12-03T06:04:27.092Z,998.99
2017-12-03T06:05:27.066Z,999.01
2017-12-03T06:06:27.050Z,998.97
2017-12-03T06:07:27.020Z,998.98
2017-12-03T06:08:26.989Z,999.00
2017-12-03T06:09:26.967Z,998.98
2017-12-03T06:10:26.933Z,998.97
2017-12-03T06:11:26.954Z,999.01
2017-12-03T06:12:26.884Z,999.01
2017-12-03T06:13:26.852Z,998.97
2017-12-03T06:14:26.828Z,998.98
2017-12-03T06:15:26.801Z,999.02
2017-12-03T06:16:26.771Z,999.00
2017-12-03T06:17:26.753Z,999.01
2017-12-03T06:18:26.718Z,999.08
2017-12-03T06:19:26.691Z,999.10
2017-12-03T06:20:26.676Z,999.05
2017-12-03T06:21:26.640Z,999.04
2017-12-03T06:22:26.663Z,999.00
2017-12-03T06:23:26.593Z,999.01
2017-12-03T06:24:26.556Z,999.00
2017-12-03T06:25:26.531Z,998.99
2017-12-03T06:26:26.510Z,999.02
2017-12-03T06:27:26.479Z,999.06
2017-12-03T06:28:26.462Z,999.03
2017-12-03T06:29:26.437Z,999.04
2017-12-03T06:30:26.396Z,999.04
2017-12-03T06:31:26.379Z,998.99
2017-12-03T06:32:26.373Z,998.99
2017-12-03T06:33:26.319Z,999.02
2017-12-03T06:34:26.302Z,998.98
2017-12-03T06:35:26.275Z,999.01
2017-12-03T06:36:26.235Z,998.99
2017-12-03T06:37:26.210Z,998.99
2017-12-03T06:38:26.197Z,998.96
2017-12-03T06:39:26.157Z,998.95
2017-12-03T06:40:26.136Z,998.98
2017-12-03T06:41:26.117Z,999.00
2017-12-03T06:42:26.077Z,998.97
2017-12-03T06:43:26.047Z,999.04
2017-12-03T06:44:26.029Z,999.05
2017-12-03T06:45:25.996Z,999.08
2017-12-03T06:46:25.968Z,999.12
2017-12-03T06:47:25.964Z,999.15
2017-12-03T06:48:25.914Z,999.14
2017-12-03T06:49:25.908Z,999.12
2017-12-03T06:50:25.866Z,999.09
2017-12-03T06:51:25.835Z,999.06
2017-12-03T06:52:25.816Z,999.07
2017-12-03T06:53:25.786Z,999.06
2017-12-03T06:54:25.754Z,999.11
2017-12-03T06:55:25.733Z,999.08
2017-12-03T06:56:25.736Z,999.15
2017-12-03T06:57:25.673Z,999.11
2017-12-03T06:58:25.653Z,999.13
2017-12-03T06:59:25.628Z,999.15
2017-12-03T07:00:25.600Z,999.13
2017-12-03T07:01:25.571Z,999.18
2017-12-03T07:02:25.552Z,999.18
2017-12-03T07:03:25.511Z,999.23
2017-12-03T07:04:25.490Z,999.21
2017-12-03T07:05:25.461Z,999.21
2017-12-03T07:06:25.432Z,999.18
2017-12-03T07:07:25.411Z,999.14
2017-12-03T07:08:25.388Z,999.13
2017-12-03T07:09:25.351Z,999.12
2017-12-03T07:10:25.330Z,999.13
2017-12-03T07:11:25.301Z,999.11
2017-12-03T07:12:25.268Z,999.09
2017-12-03T07:13:25.251Z,999.11
2017-12-03T07:14:25.220Z,999.21
2017-12-03T07:15:25.195Z,999.22
2017-12-03T07:16:25.160Z,999.27
2017-12-03T07:17:25.141Z,999.29
2017-12-03T07:18:25.110Z,999.30
2017-12-03T07:19:25.090Z,999.22
2017-12-03T07:20:25.062Z,999.20
2017-12-03T07:21:25.029Z,999.18
2017-12-03T07:22:25.009Z,999.18
2017-12-03T07:23:24.977Z,999.19
2017-12-03T07:24:24.948Z,999.19
2017-12-03T07:25:24.927Z,999.19
2017-12-03T07:26:24.907Z,999.22
2017-12-03T07:27:24.867Z,999.19
2017-12-03T07:28:24.846Z,999.18
2017-12-03T07:29:24.817Z,999.15
2017-12-03T07:30:24.809Z,999.16
2017-12-03T07:31:24.824Z,999.15
2017-12-03T07:32:24.736Z,999.14
2017-12-03T07:33:24.713Z,999.12
2017-12-03T07:34:24.686Z,999.15
2017-12-03T07:35:24.657Z,999.13
2017-12-03T07:36:24.626Z,999.18
2017-12-03T07:37:24.603Z,999.19
2017-12-03T07:38:24.574Z,999.21
2017-12-03T07:39:24.547Z,999.22
2017-12-03T07:40:24.524Z,999.21
2017-12-03T07:41:24.498Z,999.21
2017-12-03T07:42:24.466Z,999.22
2017-12-03T07:43:24.441Z,999.25
2017-12-03T07:44:24.418Z,999.22
2017-12-03T07:45:24.383Z,999.21
2017-12-03T07:46:24.360Z,999.21
2017-12-03T07:47:24.337Z,999.19
2017-12-03T07:48:24.314Z,999.22
2017-12-03T07:49:24.281Z,999.26
2017-12-03T07:50:24.256Z,999.22
2017-12-03T07:51:24.225Z,999.24
2017-12-03T07:52:24.200Z,999.24
2017-12-03T07:53:24.174Z,999.27
2017-12-03T07:54:24.152Z,999.21
2017-12-03T07:55:24.128Z,999.15
2017-12-03T07:56:24.094Z,999.23
2017-12-03T07:57:24.065Z,999.23
2017-12-03T07:58:24.040Z,999.24
2017-12-03T07:59:24.013Z,999.26
2017-12-03T08:00:23.990Z,999.25
2017-12-03T08:01:23.959Z,999.24
2017-12-03T08:02:23.938Z,999.25
2017-12-03T08:03:23.906Z,999.30
2017-12-03T08:04:23.878Z,999.28
2017-12-03T08:05:23.891Z,999.27
2017-12-03T08:06:23.828Z,999.30
2017-12-03T08:07:23.801Z,999.32
2017-12-03T08:08:23.774Z,999.29
2017-12-03T08:09:23.747Z,999.33
2017-12-03T08:10:23.720Z,999.29
2017-12-03T08:11:23.697Z,999.35
2017-12-03T08:12:23.669Z,999.30
2017-12-03T08:13:23.643Z,999.34
2017-12-03T08:14:23.616Z,999.31
2017-12-03T08:15:23.591Z,999.29
2017-12-03T08:16:23.562Z,999.30
2017-12-03T08:17:23.537Z,999.32
2017-12-03T08:18:23.511Z,999.37
2017-12-03T08:19:23.485Z,999.32
2017-12-03T08:20:23.455Z,999.37
2017-12-03T08:21:23.440Z,999.34
2017-12-03T08:22:23.410Z,999.34
2017-12-03T08:23:23.380Z,999.41
2017-12-03T08:24:23.354Z,999.36
2017-12-03T08:25:37.843Z,999.45
2017-12-03T08:26:23.298Z,999.42
2017-12-03T08:27:23.273Z,999.40
2017-12-03T08:28:23.245Z,999.44
2017-12-03T08:29:23.221Z,999.38
2017-12-03T08:30:23.192Z,999.40
2017-12-03T08:31:23.228Z,999.39
2017-12-03T08:32:23.138Z,999.37
2017-12-03T08:33:23.117Z,999.37
2017-12-03T08:34:23.098Z,999.36
2017-12-03T08:35:23.060Z,999.39
2017-12-03T08:36:23.035Z,999.36
2017-12-03T08:37:23.019Z,999.29
2017-12-03T08:38:22.981Z,999.33
2017-12-03T08:39:22.955Z,999.33
2017-12-03T08:40:22.968Z,999.29
2017-12-03T08:41:22.903Z,999.38
2017-12-03T08:42:22.878Z,999.31
2017-12-03T08:43:22.852Z,999.38
2017-12-03T08:44:22.827Z,999.34
2017-12-03T08:45:22.797Z,999.28
2017-12-03T08:46:22.771Z,999.30
2017-12-03T08:47:22.749Z,999.34
2017-12-03T08:48:22.718Z,999.32
2017-12-03T08:49:22.689Z,999.26
2017-12-03T08:50:22.663Z,999.26
2017-12-03T08:51:22.645Z,999.30
2017-12-03T08:52:22.612Z,999.32
2017-12-03T08:53:22.582Z,999.33
2017-12-03T08:54:22.564Z,999.29
2017-12-03T08:55:22.538Z,999.28
2017-12-03T08:56:22.502Z,999.23
2017-12-03T08:57:22.483Z,999.34
2017-12-03T08:58:22.461Z,999.27
2017-12-03T08:59:22.437Z,999.22
2017-12-03T09:00:22.395Z,999.23
2017-12-03T09:01:22.369Z,999.19
2017-12-03T09:02:22.344Z,999.19
2017-12-03T09:03:22.323Z,999.21
2017-12-03T09:04:22.289Z,999.22
2017-12-03T09:05:22.261Z,999.21
2017-12-03T09:06:22.241Z,999.23
2017-12-03T09:07:22.210Z,999.23
2017-12-03T09:08:22.190Z,999.23
2017-12-03T09:09:22.165Z,999.27
2017-12-03T09:10:22.137Z,999.20
2017-12-03T09:11:22.108Z,999.24
2017-12-03T09:12:22.081Z,999.17
2017-12-03T09:13:22.048Z,999.18
2017-12-03T09:14:22.028Z,999.17
2017-12-03T09:15:22.035Z,999.16
2017-12-03T09:16:21.968Z,999.14
2017-12-03T09:17:21.941Z,999.16
2017-12-03T09:18:21.924Z,999.20
2017-12-03T09:19:21.887Z,999.19
2017-12-03T09:20:21.865Z,999.18
2017-12-03T09:21:21.839Z,999.16
2017-12-03T09:22:21.810Z,999.18
2017-12-03T09:23:21.786Z,999.16
2017-12-03T09:24:21.757Z,999.17
2017-12-03T09:25:21.724Z,999.20
2017-12-03T09:26:21.716Z,999.20
2017-12-03T09:27:21.677Z,999.21
2017-12-03T09:28:21.645Z,999.18
2017-12-03T09:29:21.625Z,999.28
2017-12-03T09:30:21.600Z,999.20
2017-12-03T09:31:21.567Z,999.18
2017-12-03T09:32:21.543Z,999.17
2017-12-03T09:33:21.514Z,999.13
2017-12-03T09:34:21.487Z,999.15
2017-12-03T09:35:21.462Z,999.11
2017-12-03T09:36:21.436Z,999.17
2017-12-03T09:37:21.407Z,999.17
2017-12-03T09:38:21.381Z,999.17
2017-12-03T09:39:21.357Z,999.16
2017-12-03T09:40:21.323Z,999.14
2017-12-03T09:41:21.303Z,999.21
2017-12-03T09:42:21.273Z,999.16
2017-12-03T09:43:21.246Z,999.17
2017-12-03T09:44:21.221Z,999.19
2017-12-03T09:45:21.194Z,999.15
2017-12-03T09:46:21.165Z,999.12
2017-12-03T09:47:21.152Z,999.19
2017-12-03T09:48:21.150Z,999.17
2017-12-03T09:49:21.126Z,999.15
2017-12-03T09:50:21.058Z,999.10
2017-12-03T09:51:21.061Z,999.07
2017-12-03T09:52:21.004Z,999.07
2017-12-03T09:53:20.984Z,999.03
2017-12-03T09:54:20.953Z,999.04
2017-12-03T09:55:20.924Z,999.06
2017-12-03T09:56:35.856Z,999.03
2017-12-03T09:57:20.875Z,999.05
2017-12-03T09:58:20.845Z,999.09
2017-12-03T09:59:20.823Z,999.07
2017-12-03T10:00:20.796Z,999.05
2017-12-03T10:01:20.760Z,999.06
2017-12-03T10:02:20.737Z,999.06
2017-12-03T10:03:20.714Z,999.05
2017-12-03T10:04:20.686Z,999.02
2017-12-03T10:05:20.654Z,999.05
2017-12-03T10:06:20.632Z,999.06
2017-12-03T10:07:20.600Z,999.07
2017-12-03T10:08:20.573Z,998.98
2017-12-03T10:09:20.550Z,998.98
2017-12-03T10:10:20.528Z,999.01
2017-12-03T10:11:20.496Z,998.97
2017-12-03T10:12:20.471Z,998.91
2017-12-03T10:13:20.448Z,998.95
2017-12-03T10:14:20.417Z,998.89
2017-12-03T10:15:20.394Z,998.88
2017-12-03T10:16:20.359Z,998.89
2017-12-03T10:17:20.334Z,998.92
2017-12-03T10:18:20.309Z,998.91
2017-12-03T10:19:20.282Z,998.92
2017-12-03T10:20:20.254Z,998.90
2017-12-03T10:21:20.231Z,998.86
2017-12-03T10:22:20.201Z,998.81
2017-12-03T10:23:20.174Z,998.83
2017-12-03T10:24:20.191Z,998.81
2017-12-03T10:25:20.124Z,998.85
2017-12-03T10:26:20.093Z,998.87
2017-12-03T10:27:20.066Z,998.89
2017-12-03T10:28:20.047Z,998.82
2017-12-03T10:29:20.014Z,998.96
2017-12-03T10:30:19.987Z,998.89
2017-12-03T10:31:19.964Z,998.93
2017-12-03T10:32:19.933Z,998.90
2017-12-03T10:33:19.926Z,998.88
2017-12-03T10:34:19.883Z,998.81
2017-12-03T10:35:19.899Z,998.77
2017-12-03T10:36:19.839Z,998.77
2017-12-03T10:37:19.802Z,998.74
2017-12-03T10:38:19.783Z,998.74
2017-12-03T10:39:19.755Z,998.71
2017-12-03T10:40:19.717Z,998.72
2017-12-03T10:41:19.693Z,998.66
2017-12-03T10:42:19.675Z,998.67
2017-12-03T10:43:19.640Z,998.67
2017-12-03T10:44:19.613Z,998.66
2017-12-03T10:45:19.592Z,998.64
2017-12-03T10:46:19.567Z,998.65
2017-12-03T10:47:19.532Z,998.63
2017-12-03T10:48:19.506Z,998.68
2017-12-03T10:49:19.471Z,998.65
2017-12-03T10:50:19.451Z,998.61
2017-12-03T10:51:19.425Z,998.64
2017-12-03T10:52:19.393Z,998.60
2017-12-03T10:53:19.370Z,998.59
2017-12-03T10:54:19.345Z,998.57
2017-12-03T10:55:19.312Z,998.70
2017-12-03T10:56:19.285Z,998.59
2017-12-03T10:57:19.264Z,998.57
2017-12-03T10:58:19.277Z,998.59
2017-12-03T10:59:19.206Z,998.54
2017-12-03T11:00:19.190Z,998.48
2017-12-03T11:01:19.151Z,998.53
2017-12-03T11:02:19.139Z,998.48
2017-12-03T11:03:19.107Z,998.55
2017-12-03T11:04:19.073Z,998.45
2017-12-03T11:05:19.044Z,998.45
2017-12-03T11:06:19.025Z,998.46
2017-12-03T11:07:18.990Z,998.44
2017-12-03T11:08:18.963Z,998.45
2017-12-03T11:09:18.969Z,998.46
2017-12-03T11:10:18.917Z,998.46
2017-12-03T11:11:18.882Z,998.39
2017-12-03T11:12:18.867Z,998.38
2017-12-03T11:13:18.832Z,998.40
2017-12-03T11:14:18.799Z,998.42
2017-12-03T11:15:18.778Z,998.40
2017-12-03T11:16:18.745Z,998.40
2017-12-03T11:17:18.725Z,998.39
2017-12-03T11:18:18.702Z,998.33
2017-12-03T11:19:18.678Z,998.36
2017-12-03T11:20:18.638Z,998.29
2017-12-03T11:21:18.616Z,998.33
2017-12-03T11:22:18.581Z,998.29
2017-12-03T11:23:18.556Z,998.33
2017-12-03T11:24:18.538Z,998.33
2017-12-03T11:25:18.499Z,998.25
2017-12-03T11:26:18.478Z,998.23
2017-12-03T11:27:18.456Z,998.24
2017-12-03T11:28:18.461Z,998.22
2017-12-03T11:29:18.393Z,998.15
2017-12-03T11:30:18.372Z,998.14
2017-12-03T11:31:18.374Z,998.16
2017-12-03T11:32:18.316Z,998.23
2017-12-03T11:33:18.336Z,998.18
2017-12-03T11:34:18.335Z,998.10
2017-12-03T11:35:18.246Z,998.08
2017-12-03T11:36:18.230Z,998.04
2017-12-03T11:37:18.191Z,997.99
2017-12-03T11:38:18.154Z,997.98
2017-12-03T11:39:18.126Z,997.99
2017-12-03T11:40:18.096Z,997.91
2017-12-03T11:41:18.071Z,997.97
2017-12-03T11:42:18.051Z,997.89
2017-12-03T11:43:18.013Z,997.90
2017-12-03T11:44:17.988Z,997.88
2017-12-03T11:45:17.969Z,997.86
2017-12-03T11:46:17.933Z,997.85
2017-12-03T11:47:17.914Z,997.82
2017-12-03T11:48:17.885Z,997.82
2017-12-03T11:49:17.854Z,997.78
2017-12-03T11:50:17.828Z,997.85
2017-12-03T11:51:17.805Z,997.79
2017-12-03T11:52:17.769Z,997.78
2017-12-03T11:53:17.747Z,997.74
2017-12-03T11:54:17.726Z,997.69
2017-12-03T11:55:17.687Z,997.69
2017-12-03T11:56:17.666Z,997.69
2017-12-03T11:57:17.641Z,997.70
2017-12-03T11:58:17.606Z,997.61
2017-12-03T11:59:17.585Z,997.64
2017-12-03T12:00:17.562Z,997.64
2017-12-03T12:01:17.526Z,997.63
2017-12-03T12:02:17.520Z,997.62
2017-12-03T12:03:17.477Z,997.60
2017-12-03T12:04:17.456Z,997.60
2017-12-03T12:05:17.417Z,997.59
2017-12-03T12:06:17.396Z,997.61
2017-12-03T12:07:17.390Z,997.60
2017-12-03T12:08:17.350Z,997.60
2017-12-03T12:09:17.315Z,997.64
2017-12-03T12:10:17.282Z,997.58
2017-12-03T12:11:17.261Z,997.63
2017-12-03T12:12:17.234Z,997.57
2017-12-03T12:13:17.200Z,997.55
2017-12-03T12:14:17.172Z,997.59
2017-12-03T12:15:17.145Z,997.55
2017-12-03T12:16:17.116Z,997.55
2017-12-03T12:17:17.115Z,997.55
2017-12-03T12:18:17.066Z,997.54
2017-12-03T12:19:17.037Z,997.53
2017-12-03T12:20:17.052Z,997.55
2017-12-03T12:21:16.981Z,997.47
2017-12-03T12:22:16.978Z,997.51
2017-12-03T12:23:16.931Z,997.55